sensor_id;sensor_type;location;lat;lon;timestamp;P1;durP1;ratioP1;P2;durP2;ratioP2
6983;SDS011;3532;51.118;7.210;2022-12-18T00:01:58;8.93;;;6.63;;
6983;SDS011;3532;51.118;7.210;2022-12-18T00:04:24;8.80;;;6.33;;
6983;SDS011;3532;51.118;7.210;2022-12-18T00:06:50;8.95;;;6.93;;
6983;SDS011;3532;51.118;7.210;2022-12-18T00:09:16;8.33;;;6.17;;
6983;SDS011;3532;51.118;7.210;2022-12-18T00:11:42;8.20;;;6.93;;
6983;SDS011;3532;51.118;7.210;2022-12-18T00:14:08;9.43;;;6.37;;
6983;SDS011;3532;51.118;7.210;2022-12-18T00:16:34;7.35;;;6.10;;
6983;SDS011;3532;51.118;7.210;2022-12-18T00:19:01;10.38;;;6.90;;
6983;SDS011;3532;51.118;7.210;2022-12-18T00:21:28;6.65;;;6.00;;
6983;SDS011;3532;51.118;7.210;2022-12-18T00:23:54;8.23;;;6.30;;
6983;SDS011;3532;51.118;7.210;2022-12-18T00:26:20;6.83;;;6.13;;
6983;SDS011;3532;51.118;7.210;2022-12-18T00:28:48;6.80;;;5.88;;
6983;SDS011;3532;51.118;7.210;2022-12-18T00:31:15;8.00;;;6.47;;
6983;SDS011;3532;51.118;7.210;2022-12-18T00:33:42;7.28;;;6.57;;
6983;SDS011;3532;51.118;7.210;2022-12-18T00:36:10;7.43;;;6.30;;
6983;SDS011;3532;51.118;7.210;2022-12-18T00:38:37;7.32;;;6.63;;
6983;SDS011;3532;51.118;7.210;2022-12-18T00:41:03;8.70;;;6.63;;
6983;SDS011;3532;51.118;7.210;2022-12-18T00:43:28;9.33;;;6.23;;
6983;SDS011;3532;51.118;7.210;2022-12-18T00:45:54;8.77;;;7.10;;
6983;SDS011;3532;51.118;7.210;2022-12-18T00:48:19;9.30;;;6.60;;
6983;SDS011;3532;51.118;7.210;2022-12-18T00:50:44;9.20;;;7.07;;
6983;SDS011;3532;51.118;7.210;2022-12-18T00:53:10;7.83;;;6.80;;
6983;SDS011;3532;51.118;7.210;2022-12-18T00:55:39;7.90;;;6.90;;
6983;SDS011;3532;51.118;7.210;2022-12-18T00:58:05;8.15;;;6.38;;
6983;SDS011;3532;51.118;7.210;2022-12-18T01:00:30;8.03;;;6.93;;
6983;SDS011;3532;51.118;7.210;2022-12-18T01:02:55;9.67;;;7.10;;
6983;SDS011;3532;51.118;7.210;2022-12-18T01:05:21;8.53;;;7.13;;
6983;SDS011;3532;51.118;7.210;2022-12-18T01:07:46;8.53;;;7.73;;
6983;SDS011;3532;51.118;7.210;2022-12-18T01:10:12;8.30;;;6.37;;
6983;SDS011;3532;51.118;7.210;2022-12-18T01:12:37;7.10;;;6.40;;
6983;SDS011;3532;51.118;7.210;2022-12-18T01:15:03;7.33;;;6.57;;
6983;SDS011;3532;51.118;7.210;2022-12-18T01:17:28;8.77;;;6.97;;
6983;SDS011;3532;51.118;7.210;2022-12-18T01:19:54;7.90;;;6.90;;
6983;SDS011;3532;51.118;7.210;2022-12-18T01:22:19;7.40;;;6.33;;
6983;SDS011;3532;51.118;7.210;2022-12-18T01:24:44;9.43;;;7.10;;
6983;SDS011;3532;51.118;7.210;2022-12-18T01:27:10;7.07;;;5.67;;
6983;SDS011;3532;51.118;7.210;2022-12-18T01:29:35;7.00;;;6.30;;
6983;SDS011;3532;51.118;7.210;2022-12-18T01:32:00;9.30;;;7.10;;
6983;SDS011;3532;51.118;7.210;2022-12-18T01:34:26;8.47;;;7.07;;
6983;SDS011;3532;51.118;7.210;2022-12-18T01:36:51;9.03;;;7.00;;
6983;SDS011;3532;51.118;7.210;2022-12-18T01:39:17;8.97;;;7.30;;
6983;SDS011;3532;51.118;7.210;2022-12-18T01:41:43;7.95;;;6.53;;
6983;SDS011;3532;51.118;7.210;2022-12-18T01:47:43;9.73;;;7.10;;
6983;SDS011;3532;51.118;7.210;2022-12-18T01:53:12;11.20;;;7.25;;
6983;SDS011;3532;51.118;7.210;2022-12-18T01:55:42;8.57;;;6.47;;
6983;SDS011;3532;51.118;7.210;2022-12-18T01:58:10;7.57;;;6.50;;
6983;SDS011;3532;51.118;7.210;2022-12-18T02:00:35;10.43;;;7.57;;
6983;SDS011;3532;51.118;7.210;2022-12-18T02:03:00;7.83;;;6.97;;
6983;SDS011;3532;51.118;7.210;2022-12-18T02:05:33;10.00;;;6.77;;
6983;SDS011;3532;51.118;7.210;2022-12-18T02:08:07;8.43;;;7.53;;
6983;SDS011;3532;51.118;7.210;2022-12-18T02:25:25;8.70;;;6.30;;
6983;SDS011;3532;51.118;7.210;2022-12-18T02:28:06;11.45;;;6.05;;
6983;SDS011;3532;51.118;7.210;2022-12-18T02:30:35;7.55;;;6.50;;
6983;SDS011;3532;51.118;7.210;2022-12-18T02:33:01;7.15;;;6.45;;
6983;SDS011;3532;51.118;7.210;2022-12-18T02:35:29;9.60;;;6.15;;
6983;SDS011;3532;51.118;7.210;2022-12-18T02:37:55;12.00;;;7.40;;
6983;SDS011;3532;51.118;7.210;2022-12-18T02:40:22;9.87;;;7.57;;
6983;SDS011;3532;51.118;7.210;2022-12-18T02:42:49;7.05;;;6.35;;
6983;SDS011;3532;51.118;7.210;2022-12-18T02:45:14;7.50;;;6.80;;
6983;SDS011;3532;51.118;7.210;2022-12-18T02:47:40;9.73;;;6.83;;
6983;SDS011;3532;51.118;7.210;2022-12-18T02:50:11;11.00;;;6.90;;
6983;SDS011;3532;51.118;7.210;2022-12-18T02:55:38;7.57;;;6.72;;
6983;SDS011;3532;51.118;7.210;2022-12-18T02:58:27;8.50;;;6.68;;
6983;SDS011;3532;51.118;7.210;2022-12-18T03:01:21;8.40;;;6.93;;
6983;SDS011;3532;51.118;7.210;2022-12-18T03:04:05;7.85;;;6.43;;
6983;SDS011;3532;51.118;7.210;2022-12-18T03:06:41;8.40;;;6.68;;
6983;SDS011;3532;51.118;7.210;2022-12-18T03:09:17;7.55;;;6.85;;
6983;SDS011;3532;51.118;7.210;2022-12-18T03:11:46;9.25;;;6.80;;
6983;SDS011;3532;51.118;7.210;2022-12-18T03:14:35;7.13;;;6.00;;
6983;SDS011;3532;51.118;7.210;2022-12-18T03:17:03;8.45;;;7.13;;
6983;SDS011;3532;51.118;7.210;2022-12-18T03:19:31;6.70;;;5.93;;
6983;SDS011;3532;51.118;7.210;2022-12-18T03:21:57;9.43;;;7.22;;
6983;SDS011;3532;51.118;7.210;2022-12-18T03:24:26;7.90;;;6.60;;
6983;SDS011;3532;51.118;7.210;2022-12-18T03:26:54;8.10;;;7.05;;
6983;SDS011;3532;51.118;7.210;2022-12-18T03:29:30;8.23;;;7.18;;
6983;SDS011;3532;51.118;7.210;2022-12-18T03:32:00;10.88;;;7.70;;
6983;SDS011;3532;51.118;7.210;2022-12-18T03:34:30;10.55;;;7.45;;
6983;SDS011;3532;51.118;7.210;2022-12-18T03:36:56;7.10;;;6.25;;
6983;SDS011;3532;51.118;7.210;2022-12-18T03:39:22;6.97;;;6.28;;
6983;SDS011;3532;51.118;7.210;2022-12-18T03:41:51;8.00;;;6.40;;
6983;SDS011;3532;51.118;7.210;2022-12-18T03:44:44;14.60;;;6.63;;
6983;SDS011;3532;51.118;7.210;2022-12-18T03:47:19;8.75;;;6.88;;
6983;SDS011;3532;51.118;7.210;2022-12-18T03:52:49;8.35;;;6.80;;
6983;SDS011;3532;51.118;7.210;2022-12-18T03:55:22;6.10;;;5.50;;
6983;SDS011;3532;51.118;7.210;2022-12-18T03:57:48;7.23;;;6.00;;
6983;SDS011;3532;51.118;7.210;2022-12-18T04:00:14;9.43;;;6.53;;
6983;SDS011;3532;51.118;7.210;2022-12-18T04:02:42;7.55;;;5.95;;
6983;SDS011;3532;51.118;7.210;2022-12-18T04:05:10;7.97;;;5.90;;
6983;SDS011;3532;51.118;7.210;2022-12-18T04:07:36;6.83;;;5.90;;
6983;SDS011;3532;51.118;7.210;2022-12-18T04:10:02;6.67;;;6.00;;
6983;SDS011;3532;51.118;7.210;2022-12-18T04:12:30;8.18;;;6.90;;
6983;SDS011;3532;51.118;7.210;2022-12-18T04:14:55;9.60;;;6.83;;
6983;SDS011;3532;51.118;7.210;2022-12-18T04:17:20;8.13;;;7.23;;
6983;SDS011;3532;51.118;7.210;2022-12-18T04:19:46;7.00;;;6.37;;
6983;SDS011;3532;51.118;7.210;2022-12-18T04:22:11;8.43;;;6.70;;
6983;SDS011;3532;51.118;7.210;2022-12-18T04:24:37;7.23;;;6.50;;
6983;SDS011;3532;51.118;7.210;2022-12-18T04:27:02;8.87;;;6.73;;
6983;SDS011;3532;51.118;7.210;2022-12-18T04:29:28;6.43;;;5.83;;
6983;SDS011;3532;51.118;7.210;2022-12-18T04:31:53;7.23;;;6.43;;
6983;SDS011;3532;51.118;7.210;2022-12-18T04:34:19;6.90;;;6.03;;
6983;SDS011;3532;51.118;7.210;2022-12-18T04:36:44;10.43;;;6.73;;
6983;SDS011;3532;51.118;7.210;2022-12-18T04:39:10;9.03;;;6.90;;
6983;SDS011;3532;51.118;7.210;2022-12-18T04:41:35;8.03;;;7.07;;
6983;SDS011;3532;51.118;7.210;2022-12-18T04:44:00;8.73;;;6.50;;
6983;SDS011;3532;51.118;7.210;2022-12-18T04:46:26;8.63;;;6.70;;
6983;SDS011;3532;51.118;7.210;2022-12-18T04:48:51;7.83;;;6.47;;
6983;SDS011;3532;51.118;7.210;2022-12-18T04:51:16;6.63;;;6.03;;
6983;SDS011;3532;51.118;7.210;2022-12-18T04:53:42;7.90;;;6.53;;
6983;SDS011;3532;51.118;7.210;2022-12-18T04:56:08;9.17;;;6.50;;
6983;SDS011;3532;51.118;7.210;2022-12-18T04:58:35;8.52;;;6.28;;
6983;SDS011;3532;51.118;7.210;2022-12-18T05:01:01;8.20;;;6.60;;
6983;SDS011;3532;51.118;7.210;2022-12-18T05:03:27;10.10;;;6.37;;
6983;SDS011;3532;51.118;7.210;2022-12-18T05:05:52;8.17;;;6.00;;
6983;SDS011;3532;51.118;7.210;2022-12-18T05:08:17;9.40;;;6.53;;
6983;SDS011;3532;51.118;7.210;2022-12-18T05:10:43;7.73;;;6.47;;
6983;SDS011;3532;51.118;7.210;2022-12-18T05:13:08;7.27;;;6.50;;
6983;SDS011;3532;51.118;7.210;2022-12-18T05:15:34;7.13;;;5.97;;
6983;SDS011;3532;51.118;7.210;2022-12-18T05:17:59;6.67;;;5.87;;
6983;SDS011;3532;51.118;7.210;2022-12-18T05:20:25;9.00;;;6.20;;
6983;SDS011;3532;51.118;7.210;2022-12-18T05:22:51;6.18;;;5.57;;
6983;SDS011;3532;51.118;7.210;2022-12-18T05:25:17;7.40;;;6.57;;
6983;SDS011;3532;51.118;7.210;2022-12-18T05:27:43;8.20;;;6.03;;
6983;SDS011;3532;51.118;7.210;2022-12-18T05:30:08;11.13;;;6.60;;
6983;SDS011;3532;51.118;7.210;2022-12-18T05:32:54;7.25;;;5.95;;
6983;SDS011;3532;51.118;7.210;2022-12-18T05:35:20;7.80;;;6.47;;
6983;SDS011;3532;51.118;7.210;2022-12-18T05:37:45;8.77;;;5.93;;
6983;SDS011;3532;51.118;7.210;2022-12-18T05:40:10;7.57;;;6.10;;
6983;SDS011;3532;51.118;7.210;2022-12-18T05:42:36;8.00;;;6.13;;
6983;SDS011;3532;51.118;7.210;2022-12-18T05:45:02;8.67;;;5.90;;
6983;SDS011;3532;51.118;7.210;2022-12-18T05:47:27;8.37;;;6.37;;
6983;SDS011;3532;51.118;7.210;2022-12-18T05:49:53;8.93;;;6.93;;
6983;SDS011;3532;51.118;7.210;2022-12-18T05:52:19;8.13;;;6.87;;
6983;SDS011;3532;51.118;7.210;2022-12-18T05:54:44;9.60;;;6.93;;
6983;SDS011;3532;51.118;7.210;2022-12-18T05:57:09;7.23;;;5.60;;
6983;SDS011;3532;51.118;7.210;2022-12-18T05:59:35;10.00;;;7.90;;
6983;SDS011;3532;51.118;7.210;2022-12-18T06:02:00;8.73;;;7.20;;
6983;SDS011;3532;51.118;7.210;2022-12-18T06:04:28;8.10;;;6.40;;
6983;SDS011;3532;51.118;7.210;2022-12-18T06:06:54;10.43;;;6.75;;
6983;SDS011;3532;51.118;7.210;2022-12-18T06:09:19;9.37;;;6.57;;
6983;SDS011;3532;51.118;7.210;2022-12-18T06:11:44;7.17;;;6.37;;
6983;SDS011;3532;51.118;7.210;2022-12-18T06:14:10;10.67;;;7.63;;
6983;SDS011;3532;51.118;7.210;2022-12-18T06:16:35;10.27;;;7.47;;
6983;SDS011;3532;51.118;7.210;2022-12-18T06:19:01;7.73;;;6.90;;
6983;SDS011;3532;51.118;7.210;2022-12-18T06:21:28;8.95;;;6.38;;
6983;SDS011;3532;51.118;7.210;2022-12-18T06:23:54;11.57;;;7.97;;
6983;SDS011;3532;51.118;7.210;2022-12-18T06:26:19;10.27;;;7.70;;
6983;SDS011;3532;51.118;7.210;2022-12-18T06:28:44;9.93;;;7.50;;
6983;SDS011;3532;51.118;7.210;2022-12-18T06:31:10;8.23;;;6.97;;
6983;SDS011;3532;51.118;7.210;2022-12-18T06:33:35;8.60;;;7.20;;
6983;SDS011;3532;51.118;7.210;2022-12-18T06:36:05;9.27;;;7.37;;
6983;SDS011;3532;51.118;7.210;2022-12-18T06:38:35;9.35;;;7.57;;
6983;SDS011;3532;51.118;7.210;2022-12-18T06:41:09;13.35;;;7.88;;
6983;SDS011;3532;51.118;7.210;2022-12-18T06:43:36;9.68;;;7.30;;
6983;SDS011;3532;51.118;7.210;2022-12-18T06:46:02;10.93;;;7.10;;
6983;SDS011;3532;51.118;7.210;2022-12-18T06:48:28;9.40;;;7.13;;
6983;SDS011;3532;51.118;7.210;2022-12-18T06:50:54;7.67;;;6.57;;
6983;SDS011;3532;51.118;7.210;2022-12-18T06:53:19;10.73;;;7.57;;
6983;SDS011;3532;51.118;7.210;2022-12-18T06:55:44;10.63;;;7.33;;
6983;SDS011;3532;51.118;7.210;2022-12-18T06:58:10;9.97;;;8.07;;
6983;SDS011;3532;51.118;7.210;2022-12-18T07:00:35;10.20;;;7.37;;
6983;SDS011;3532;51.118;7.210;2022-12-18T07:03:00;9.63;;;8.63;;
6983;SDS011;3532;51.118;7.210;2022-12-18T07:05:26;8.80;;;6.97;;
6983;SDS011;3532;51.118;7.210;2022-12-18T07:07:51;9.50;;;7.57;;
6983;SDS011;3532;51.118;7.210;2022-12-18T07:10:17;10.90;;;8.00;;
6983;SDS011;3532;51.118;7.210;2022-12-18T07:12:42;10.00;;;8.60;;
6983;SDS011;3532;51.118;7.210;2022-12-18T07:15:08;13.63;;;8.87;;
6983;SDS011;3532;51.118;7.210;2022-12-18T07:17:33;10.20;;;7.10;;
6983;SDS011;3532;51.118;7.210;2022-12-18T07:19:59;10.47;;;7.37;;
6983;SDS011;3532;51.118;7.210;2022-12-18T07:22:24;9.27;;;7.93;;
6983;SDS011;3532;51.118;7.210;2022-12-18T07:24:50;9.52;;;7.82;;
6983;SDS011;3532;51.118;7.210;2022-12-18T07:27:16;9.37;;;7.80;;
6983;SDS011;3532;51.118;7.210;2022-12-18T07:29:41;9.53;;;8.13;;
6983;SDS011;3532;51.118;7.210;2022-12-18T07:32:06;12.97;;;7.80;;
6983;SDS011;3532;51.118;7.210;2022-12-18T07:34:32;8.60;;;7.70;;
6983;SDS011;3532;51.118;7.210;2022-12-18T07:36:57;11.03;;;8.03;;
6983;SDS011;3532;51.118;7.210;2022-12-18T07:39:23;8.73;;;7.67;;
6983;SDS011;3532;51.118;7.210;2022-12-18T07:41:48;10.47;;;7.70;;
6983;SDS011;3532;51.118;7.210;2022-12-18T07:44:33;8.98;;;7.32;;
6983;SDS011;3532;51.118;7.210;2022-12-18T07:46:59;10.63;;;7.87;;
6983;SDS011;3532;51.118;7.210;2022-12-18T07:49:24;10.97;;;8.87;;
6983;SDS011;3532;51.118;7.210;2022-12-18T07:51:49;11.70;;;8.23;;
6983;SDS011;3532;51.118;7.210;2022-12-18T07:54:14;13.77;;;8.37;;
6983;SDS011;3532;51.118;7.210;2022-12-18T07:56:40;11.53;;;8.30;;
6983;SDS011;3532;51.118;7.210;2022-12-18T07:59:05;10.13;;;7.13;;
6983;SDS011;3532;51.118;7.210;2022-12-18T08:01:30;11.10;;;8.97;;
6983;SDS011;3532;51.118;7.210;2022-12-18T08:03:56;10.53;;;7.87;;
6983;SDS011;3532;51.118;7.210;2022-12-18T08:06:22;8.77;;;7.85;;
6983;SDS011;3532;51.118;7.210;2022-12-18T08:08:47;11.20;;;8.50;;
6983;SDS011;3532;51.118;7.210;2022-12-18T08:11:12;9.67;;;7.77;;
6983;SDS011;3532;51.118;7.210;2022-12-18T08:13:38;11.63;;;8.37;;
6983;SDS011;3532;51.118;7.210;2022-12-18T08:16:04;11.43;;;8.20;;
6983;SDS011;3532;51.118;7.210;2022-12-18T08:18:32;9.63;;;7.53;;
6983;SDS011;3532;51.118;7.210;2022-12-18T08:21:02;12.07;;;8.27;;
6983;SDS011;3532;51.118;7.210;2022-12-18T08:23:46;10.57;;;7.78;;
6983;SDS011;3532;51.118;7.210;2022-12-18T08:26:11;10.80;;;7.43;;
6983;SDS011;3532;51.118;7.210;2022-12-18T08:28:37;10.03;;;6.80;;
6983;SDS011;3532;51.118;7.210;2022-12-18T08:31:02;9.10;;;7.40;;
6983;SDS011;3532;51.118;7.210;2022-12-18T08:33:28;8.55;;;7.18;;
6983;SDS011;3532;51.118;7.210;2022-12-18T08:35:54;8.30;;;7.27;;
6983;SDS011;3532;51.118;7.210;2022-12-18T08:38:19;13.23;;;8.23;;
6983;SDS011;3532;51.118;7.210;2022-12-18T08:40:44;11.53;;;7.90;;
6983;SDS011;3532;51.118;7.210;2022-12-18T08:43:10;9.00;;;6.63;;
6983;SDS011;3532;51.118;7.210;2022-12-18T08:45:54;9.52;;;7.55;;
6983;SDS011;3532;51.118;7.210;2022-12-18T08:48:19;10.90;;;7.93;;
6983;SDS011;3532;51.118;7.210;2022-12-18T08:50:53;10.57;;;7.50;;
6983;SDS011;3532;51.118;7.210;2022-12-18T08:53:19;9.10;;;7.65;;
6983;SDS011;3532;51.118;7.210;2022-12-18T08:55:45;8.93;;;6.90;;
6983;SDS011;3532;51.118;7.210;2022-12-18T08:58:10;11.27;;;7.37;;
6983;SDS011;3532;51.118;7.210;2022-12-18T09:00:35;10.73;;;6.83;;
6983;SDS011;3532;51.118;7.210;2022-12-18T09:03:01;10.70;;;7.33;;
6983;SDS011;3532;51.118;7.210;2022-12-18T09:05:26;12.27;;;7.97;;
6983;SDS011;3532;51.118;7.210;2022-12-18T09:07:52;10.83;;;7.80;;
6983;SDS011;3532;51.118;7.210;2022-12-18T09:10:17;10.23;;;6.60;;
6983;SDS011;3532;51.118;7.210;2022-12-18T09:12:42;7.87;;;5.93;;
6983;SDS011;3532;51.118;7.210;2022-12-18T09:15:08;8.27;;;6.57;;
6983;SDS011;3532;51.118;7.210;2022-12-18T09:17:33;9.27;;;6.90;;
6983;SDS011;3532;51.118;7.210;2022-12-18T09:19:59;8.63;;;6.93;;
6983;SDS011;3532;51.118;7.210;2022-12-18T09:22:24;10.73;;;7.40;;
6983;SDS011;3532;51.118;7.210;2022-12-18T09:24:49;7.63;;;6.17;;
6983;SDS011;3532;51.118;7.210;2022-12-18T09:27:14;8.00;;;6.27;;
6983;SDS011;3532;51.118;7.210;2022-12-18T09:29:40;7.03;;;6.03;;
6983;SDS011;3532;51.118;7.210;2022-12-18T09:32:05;9.60;;;7.03;;
6983;SDS011;3532;51.118;7.210;2022-12-18T09:34:30;7.17;;;6.23;;
6983;SDS011;3532;51.118;7.210;2022-12-18T09:36:56;8.87;;;7.17;;
6983;SDS011;3532;51.118;7.210;2022-12-18T09:39:21;10.13;;;6.03;;
6983;SDS011;3532;51.118;7.210;2022-12-18T09:41:47;7.70;;;5.90;;
6983;SDS011;3532;51.118;7.210;2022-12-18T09:46:48;7.30;;;6.00;;
6983;SDS011;3532;51.118;7.210;2022-12-18T09:49:18;8.25;;;6.38;;
6983;SDS011;3532;51.118;7.210;2022-12-18T09:51:45;8.88;;;6.03;;
6983;SDS011;3532;51.118;7.210;2022-12-18T09:54:12;8.13;;;5.35;;
6983;SDS011;3532;51.118;7.210;2022-12-18T09:56:43;9.40;;;6.65;;
6983;SDS011;3532;51.118;7.210;2022-12-18T09:59:24;9.10;;;6.00;;
6983;SDS011;3532;51.118;7.210;2022-12-18T10:01:50;6.65;;;5.68;;
6983;SDS011;3532;51.118;7.210;2022-12-18T10:04:16;7.33;;;5.67;;
6983;SDS011;3532;51.118;7.210;2022-12-18T10:06:43;5.83;;;5.27;;
6983;SDS011;3532;51.118;7.210;2022-12-18T10:09:20;6.28;;;5.45;;
6983;SDS011;3532;51.118;7.210;2022-12-18T10:14:43;8.80;;;6.07;;
6983;SDS011;3532;51.118;7.210;2022-12-18T10:19:56;7.57;;;5.82;;
6983;SDS011;3532;51.118;7.210;2022-12-18T10:25:33;6.97;;;5.65;;
6983;SDS011;3532;51.118;7.210;2022-12-18T10:28:15;7.95;;;6.13;;
6983;SDS011;3532;51.118;7.210;2022-12-18T10:30:41;7.80;;;5.20;;
6983;SDS011;3532;51.118;7.210;2022-12-18T10:33:14;7.57;;;5.65;;
6983;SDS011;3532;51.118;7.210;2022-12-18T10:35:41;7.20;;;5.18;;
6983;SDS011;3532;51.118;7.210;2022-12-18T10:43:26;6.53;;;5.50;;
6983;SDS011;3532;51.118;7.210;2022-12-18T10:48:37;6.97;;;5.53;;
6983;SDS011;3532;51.118;7.210;2022-12-18T10:51:06;6.90;;;5.80;;
6983;SDS011;3532;51.118;7.210;2022-12-18T10:53:33;7.57;;;5.80;;
6983;SDS011;3532;51.118;7.210;2022-12-18T10:55:59;7.10;;;5.43;;
6983;SDS011;3532;51.118;7.210;2022-12-18T10:58:26;6.93;;;5.57;;
6983;SDS011;3532;51.118;7.210;2022-12-18T11:06:18;7.28;;;5.72;;
6983;SDS011;3532;51.118;7.210;2022-12-18T11:09:33;8.43;;;6.32;;
6983;SDS011;3532;51.118;7.210;2022-12-18T11:11:49;8.32;;;6.72;;
6983;SDS011;3532;51.118;7.210;2022-12-18T11:14:18;10.57;;;5.28;;
6983;SDS011;3532;51.118;7.210;2022-12-18T11:16:47;8.55;;;6.50;;
6983;SDS011;3532;51.118;7.210;2022-12-18T11:22:01;7.07;;;5.70;;
6983;SDS011;3532;51.118;7.210;2022-12-18T11:24:30;6.40;;;5.40;;
6983;SDS011;3532;51.118;7.210;2022-12-18T11:26:57;7.47;;;6.32;;
6983;SDS011;3532;51.118;7.210;2022-12-18T11:29:30;8.35;;;6.30;;
6983;SDS011;3532;51.118;7.210;2022-12-18T11:32:13;8.88;;;6.55;;
6983;SDS011;3532;51.118;7.210;2022-12-18T11:34:47;6.60;;;5.85;;
6983;SDS011;3532;51.118;7.210;2022-12-18T11:37:15;6.95;;;5.80;;
6983;SDS011;3532;51.118;7.210;2022-12-18T11:39:55;8.68;;;6.38;;
6983;SDS011;3532;51.118;7.210;2022-12-18T11:42:35;8.52;;;6.47;;
6983;SDS011;3532;51.118;7.210;2022-12-18T11:45:08;8.30;;;6.63;;
6983;SDS011;3532;51.118;7.210;2022-12-18T11:47:51;8.52;;;6.53;;
6983;SDS011;3532;51.118;7.210;2022-12-18T11:50:24;7.93;;;6.07;;
6983;SDS011;3532;51.118;7.210;2022-12-18T11:52:50;11.02;;;6.65;;
6983;SDS011;3532;51.118;7.210;2022-12-18T11:55:21;6.80;;;5.80;;
6983;SDS011;3532;51.118;7.210;2022-12-18T11:58:08;7.53;;;6.43;;
6983;SDS011;3532;51.118;7.210;2022-12-18T12:00:39;8.07;;;6.25;;
6983;SDS011;3532;51.118;7.210;2022-12-18T12:06:13;10.50;;;7.20;;
6983;SDS011;3532;51.118;7.210;2022-12-18T12:14:02;9.85;;;7.28;;
6983;SDS011;3532;51.118;7.210;2022-12-18T12:17:06;8.13;;;6.88;;
6983;SDS011;3532;51.118;7.210;2022-12-18T12:19:44;9.40;;;7.10;;
6983;SDS011;3532;51.118;7.210;2022-12-18T12:30:32;10.35;;;7.47;;
6983;SDS011;3532;51.118;7.210;2022-12-18T12:33:10;9.52;;;7.57;;
6983;SDS011;3532;51.118;7.210;2022-12-18T12:35:49;9.77;;;7.75;;
6983;SDS011;3532;51.118;7.210;2022-12-18T12:38:36;10.20;;;6.90;;
6983;SDS011;3532;51.118;7.210;2022-12-18T12:41:06;10.57;;;7.43;;
6983;SDS011;3532;51.118;7.210;2022-12-18T12:43:55;9.38;;;7.57;;
6983;SDS011;3532;51.118;7.210;2022-12-18T12:46:22;8.77;;;7.30;;
6983;SDS011;3532;51.118;7.210;2022-12-18T12:48:49;12.23;;;8.82;;
6983;SDS011;3532;51.118;7.210;2022-12-18T12:51:19;14.57;;;9.93;;
6983;SDS011;3532;51.118;7.210;2022-12-18T12:53:47;11.65;;;8.80;;
6983;SDS011;3532;51.118;7.210;2022-12-18T12:56:14;10.38;;;7.65;;
6983;SDS011;3532;51.118;7.210;2022-12-18T12:58:53;10.02;;;8.77;;
6983;SDS011;3532;51.118;7.210;2022-12-18T13:01:49;11.60;;;9.75;;
6983;SDS011;3532;51.118;7.210;2022-12-18T13:06:55;14.18;;;9.77;;
6983;SDS011;3532;51.118;7.210;2022-12-18T13:09:30;9.95;;;8.82;;
6983;SDS011;3532;51.118;7.210;2022-12-18T13:12:01;10.70;;;8.45;;
6983;SDS011;3532;51.118;7.210;2022-12-18T13:14:46;10.63;;;8.75;;
6983;SDS011;3532;51.118;7.210;2022-12-18T13:19:41;11.05;;;8.88;;
6983;SDS011;3532;51.118;7.210;2022-12-18T13:22:19;11.60;;;9.70;;
6983;SDS011;3532;51.118;7.210;2022-12-18T13:24:47;13.48;;;10.27;;
6983;SDS011;3532;51.118;7.210;2022-12-18T13:27:44;13.70;;;10.17;;
6983;SDS011;3532;51.118;7.210;2022-12-18T13:38:22;12.57;;;10.17;;
6983;SDS011;3532;51.118;7.210;2022-12-18T13:48:51;12.88;;;9.73;;
6983;SDS011;3532;51.118;7.210;2022-12-18T13:51:25;13.75;;;10.60;;
6983;SDS011;3532;51.118;7.210;2022-12-18T13:53:52;12.50;;;10.30;;
6983;SDS011;3532;51.118;7.210;2022-12-18T13:56:27;14.63;;;11.35;;
6983;SDS011;3532;51.118;7.210;2022-12-18T14:01:41;13.13;;;10.35;;
6983;SDS011;3532;51.118;7.210;2022-12-18T14:04:18;14.88;;;10.52;;
6983;SDS011;3532;51.118;7.210;2022-12-18T14:06:49;13.75;;;11.25;;
6983;SDS011;3532;51.118;7.210;2022-12-18T14:09:17;16.00;;;11.10;;
6983;SDS011;3532;51.118;7.210;2022-12-18T14:11:47;17.55;;;11.18;;
6983;SDS011;3532;51.118;7.210;2022-12-18T14:14:14;15.63;;;10.68;;
6983;SDS011;3532;51.118;7.210;2022-12-18T14:16:41;16.25;;;11.65;;
6983;SDS011;3532;51.118;7.210;2022-12-18T14:19:08;17.77;;;11.67;;
6983;SDS011;3532;51.118;7.210;2022-12-18T14:21:37;14.27;;;10.63;;
6983;SDS011;3532;51.118;7.210;2022-12-18T14:24:16;15.53;;;10.77;;
6983;SDS011;3532;51.118;7.210;2022-12-18T14:26:43;16.83;;;11.70;;
6983;SDS011;3532;51.118;7.210;2022-12-18T14:34:30;14.23;;;11.90;;
6983;SDS011;3532;51.118;7.210;2022-12-18T14:36:56;13.37;;;10.77;;
6983;SDS011;3532;51.118;7.210;2022-12-18T14:39:21;15.70;;;13.03;;
6983;SDS011;3532;51.118;7.210;2022-12-18T14:41:48;15.17;;;11.80;;
6983;SDS011;3532;51.118;7.210;2022-12-18T14:44:13;16.35;;;11.82;;
6983;SDS011;3532;51.118;7.210;2022-12-18T14:46:39;15.97;;;12.20;;
6983;SDS011;3532;51.118;7.210;2022-12-18T14:51:55;17.55;;;12.00;;
6983;SDS011;3532;51.118;7.210;2022-12-18T14:54:22;16.08;;;11.93;;
6983;SDS011;3532;51.118;7.210;2022-12-18T14:56:49;15.18;;;12.32;;
6983;SDS011;3532;51.118;7.210;2022-12-18T15:01:47;16.83;;;12.73;;
6983;SDS011;3532;51.118;7.210;2022-12-18T15:04:24;22.80;;;14.10;;
6983;SDS011;3532;51.118;7.210;2022-12-18T15:09:43;17.10;;;12.88;;
6983;SDS011;3532;51.118;7.210;2022-12-18T15:12:32;20.17;;;12.43;;
6983;SDS011;3532;51.118;7.210;2022-12-18T15:15:01;18.42;;;13.57;;
6983;SDS011;3532;51.118;7.210;2022-12-18T15:17:27;17.07;;;13.70;;
6983;SDS011;3532;51.118;7.210;2022-12-18T15:19:53;19.47;;;13.43;;
6983;SDS011;3532;51.118;7.210;2022-12-18T15:22:25;18.80;;;13.20;;
6983;SDS011;3532;51.118;7.210;2022-12-18T15:24:52;16.95;;;12.38;;
6983;SDS011;3532;51.118;7.210;2022-12-18T15:27:26;17.50;;;13.23;;
6983;SDS011;3532;51.118;7.210;2022-12-18T15:32:31;18.27;;;13.85;;
6983;SDS011;3532;51.118;7.210;2022-12-18T15:37:34;19.35;;;14.38;;
6983;SDS011;3532;51.118;7.210;2022-12-18T15:39:59;18.67;;;13.20;;
6983;SDS011;3532;51.118;7.210;2022-12-18T15:42:25;19.97;;;14.80;;
6983;SDS011;3532;51.118;7.210;2022-12-18T15:45:12;19.35;;;13.45;;
6983;SDS011;3532;51.118;7.210;2022-12-18T15:47:38;17.02;;;13.05;;
6983;SDS011;3532;51.118;7.210;2022-12-18T15:50:03;17.77;;;14.33;;
6983;SDS011;3532;51.118;7.210;2022-12-18T15:52:29;20.48;;;16.13;;
6983;SDS011;3532;51.118;7.210;2022-12-18T15:54:56;19.55;;;14.77;;
6983;SDS011;3532;51.118;7.210;2022-12-18T15:57:40;19.08;;;14.40;;
6983;SDS011;3532;51.118;7.210;2022-12-18T16:00:05;17.77;;;13.43;;
6983;SDS011;3532;51.118;7.210;2022-12-18T16:02:31;19.73;;;13.37;;
6983;SDS011;3532;51.118;7.210;2022-12-18T16:04:56;16.67;;;13.70;;
6983;SDS011;3532;51.118;7.210;2022-12-18T16:07:22;20.83;;;15.13;;
6983;SDS011;3532;51.118;7.210;2022-12-18T16:09:47;23.73;;;14.87;;
6983;SDS011;3532;51.118;7.210;2022-12-18T16:12:14;16.60;;;13.57;;
6983;SDS011;3532;51.118;7.210;2022-12-18T16:14:41;20.70;;;14.38;;
6983;SDS011;3532;51.118;7.210;2022-12-18T16:17:09;20.27;;;14.00;;
6983;SDS011;3532;51.118;7.210;2022-12-18T16:19:35;19.98;;;14.80;;
6983;SDS011;3532;51.118;7.210;2022-12-18T16:22:00;21.87;;;15.23;;
6983;SDS011;3532;51.118;7.210;2022-12-18T16:24:27;24.10;;;15.53;;
6983;SDS011;3532;51.118;7.210;2022-12-18T16:26:55;22.00;;;15.35;;
6983;SDS011;3532;51.118;7.210;2022-12-18T16:29:21;20.50;;;15.48;;
6983;SDS011;3532;51.118;7.210;2022-12-18T16:31:50;23.13;;;15.93;;
6983;SDS011;3532;51.118;7.210;2022-12-18T16:34:19;19.93;;;14.53;;
6983;SDS011;3532;51.118;7.210;2022-12-18T16:36:49;25.90;;;15.88;;
6983;SDS011;3532;51.118;7.210;2022-12-18T16:39:14;23.08;;;16.83;;
6983;SDS011;3532;51.118;7.210;2022-12-18T16:41:40;21.37;;;15.77;;
6983;SDS011;3532;51.118;7.210;2022-12-18T16:44:05;23.53;;;15.53;;
6983;SDS011;3532;51.118;7.210;2022-12-18T16:46:31;26.30;;;17.93;;
6983;SDS011;3532;51.118;7.210;2022-12-18T16:48:57;22.77;;;16.10;;
6983;SDS011;3532;51.118;7.210;2022-12-18T16:51:23;22.95;;;15.73;;
6983;SDS011;3532;51.118;7.210;2022-12-18T16:53:48;22.87;;;16.60;;
6983;SDS011;3532;51.118;7.210;2022-12-18T16:56:14;25.80;;;18.00;;
6983;SDS011;3532;51.118;7.210;2022-12-18T16:58:39;20.33;;;16.47;;
6983;SDS011;3532;51.118;7.210;2022-12-18T17:01:08;27.63;;;16.37;;
6983;SDS011;3532;51.118;7.210;2022-12-18T17:03:34;23.05;;;16.33;;
6983;SDS011;3532;51.118;7.210;2022-12-18T17:06:03;25.07;;;17.67;;
6983;SDS011;3532;51.118;7.210;2022-12-18T17:08:29;22.30;;;16.52;;
6983;SDS011;3532;51.118;7.210;2022-12-18T17:10:55;23.63;;;16.77;;